Time;durP1;ratioP1;P1;durP2;ratioP2;P2;SDS_P1;SDS_P2;PMS_P1;PMS_P2;Temp;Humidity;BMP_temperature;BMP_pressure;BME280_temperature;BME280_humidity;BME280_pressure;Samples;Min_cycle;Max_cycle;Signal;HPM_P1;HPM_P2
2021/05/01 00:00:32;;;;;;;11.57;10.23;;;29.60;94.20;;;;;;5092278;28;20291;-53
2021/05/01 00:03:03;;;;;;;13.30;10.38;;;29.70;94.10;;;;;;5091840;28;20323;-54
2021/05/01 00:05:33;;;;;;;11.23;10.13;;;29.70;94.30;;;;;;5092481;28;20197;-54
2021/05/01 00:08:04;;;;;;;10.32;9.38;;;29.70;94.00;;;;;;5092164;28;20246;-50
2021/05/01 00:10:35;;;;;;;10.30;9.18;;;29.70;93.90;;;;;;5092240;28;20196;-53
2021/05/01 00:13:06;;;;;;;11.27;10.13;;;29.80;93.90;;;;;;5091752;28;20258;-52
2021/05/01 00:15:37;;;;;;;13.02;10.80;;;29.80;94.00;;;;;;5091670;28;20217;-54
2021/05/01 00:18:07;;;;;;;11.40;10.30;;;29.80;94.00;;;;;;5092569;28;20293;-53
2021/05/01 00:20:38;;;;;;;13.40;10.57;;;29.90;94.00;;;;;;5091635;28;20688;-49
2021/05/01 00:23:08;;;;;;;12.35;11.00;;;29.90;94.00;;;;;;5092207;28;20652;-52
2021/05/01 00:25:39;;;;;;;15.07;12.55;;;29.90;94.00;;;;;;5090906;28;20197;-52
2021/05/01 00:28:11;;;;;;;14.50;12.90;;;29.90;94.00;;;;;;5092395;28;20235;-51
2021/05/01 00:30:41;;;;;;;18.60;15.88;;;29.90;94.00;;;;;;5092212;28;20197;-54
2021/05/01 00:33:11;;;;;;;16.02;14.35;;;30.00;94.00;;;;;;5092311;28;20580;-54
2021/05/01 00:35:43;;;;;;;18.13;16.42;;;30.00;94.00;;;;;;5091159;28;20228;-50
2021/05/01 00:38:13;;;;;;;18.33;16.63;;;30.00;94.00;;;;;;5082435;28;20236;-50
2021/05/01 00:40:46;;;;;;;18.88;16.92;;;30.00;93.90;;;;;;5091760;28;20200;-52
2021/05/01 00:43:20;;;;;;;18.58;16.65;;;30.00;93.90;;;;;;5090406;28;20197;-49
2021/05/01 00:45:50;;;;;;;18.88;16.88;;;30.00;94.00;;;;;;5091007;28;20220;-48
2021/05/01 00:48:21;;;;;;;19.10;17.30;;;30.10;94.10;;;;;;5090530;28;20200;-49
2021/05/01 00:50:51;;;;;;;19.85;17.77;;;30.10;94.10;;;;;;5090395;28;20192;-47
2021/05/01 00:53:23;;;;;;;18.40;16.25;;;30.10;94.50;;;;;;5090325;28;20268;-48
2021/05/01 00:55:53;;;;;;;17.58;15.98;;;30.10;94.00;;;;;;5090610;28;20585;-47
2021/05/01 00:58:25;;;;;;;18.77;16.90;;;30.10;94.00;;;;;;5088926;28;20201;-48
2021/05/01 01:01:16;;;;;;;18.88;17.00;;;30.20;94.10;;;;;;5090671;28;20196;-46
2021/05/01 01:03:47;;;;;;;18.70;16.08;;;30.20;93.90;;;;;;5090453;28;20772;-48
2021/05/01 01:06:18;;;;;;;19.73;17.88;;;30.30;94.00;;;;;;5090154;28;20200;-48
2021/05/01 01:08:48;;;;;;;18.30;16.40;;;30.30;94.00;;;;;;5089775;28;20203;-50
2021/05/01 01:11:19;;;;;;;16.88;15.18;;;30.30;94.00;;;;;;5090156;28;20200;-50
2021/05/01 01:14:12;;;;;;;15.77;14.30;;;30.40;94.10;;;;;;5090556;28;20213;-49
2021/05/01 01:16:44;;;;;;;18.73;17.08;;;30.40;94.10;;;;;;5090495;28;20225;-48
2021/05/01 01:19:15;;;;;;;17.27;15.55;;;30.50;94.10;;;;;;5086617;28;20250;-50
2021/05/01 01:21:47;;;;;;;18.15;16.00;;;30.50;94.00;;;;;;5081149;28;20547;-50
2021/05/01 01:24:19;;;;;;;17.73;15.95;;;30.60;93.80;;;;;;5090503;28;20235;-52
2021/05/01 01:26:50;;;;;;;17.67;16.10;;;30.60;93.50;;;;;;5090159;28;20205;-48
2021/05/01 01:29:20;;;;;;;17.30;15.77;;;30.60;93.40;;;;;;5090504;28;20872;-51
2021/05/01 01:31:51;;;;;;;18.50;16.48;;;30.70;93.50;;;;;;5079866;28;20189;-48
2021/05/01 01:34:21;;;;;;;16.45;14.88;;;30.70;93.40;;;;;;5093058;28;20203;-50
2021/05/01 01:36:52;;;;;;;19.40;17.50;;;30.80;93.40;;;;;;5094231;28;20318;-53
2021/05/01 01:39:24;;;;;;;15.98;14.45;;;30.80;93.20;;;;;;5092664;28;20201;-50
2021/05/01 01:41:54;;;;;;;16.08;14.48;;;30.80;93.10;;;;;;5094439;28;20228;-47
2021/05/01 01:44:24;;;;;;;15.00;12.85;;;30.80;93.20;;;;;;5094415;28;20648;-48
2021/05/01 01:46:55;;;;;;;13.95;12.55;;;30.80;93.00;;;;;;5094665;28;20197;-50
2021/05/01 01:49:26;;;;;;;14.90;12.30;;;30.90;93.10;;;;;;5093900;28;20216;-47
2021/05/01 01:51:57;;;;;;;14.32;12.18;;;30.90;93.10;;;;;;5094419;28;20630;-48
2021/05/01 01:54:29;;;;;;;13.57;12.10;;;30.90;93.20;;;;;;5094680;28;20289;-53
2021/05/01 01:57:00;;;;;;;12.80;11.60;;;31.00;93.30;;;;;;5093932;28;20193;-48
2021/05/01 01:59:31;;;;;;;12.35;10.40;;;31.00;93.20;;;;;;5094285;28;20208;-47
2021/05/01 02:02:01;;;;;;;10.80;9.70;;;31.00;93.10;;;;;;5093786;28;20699;-51
2021/05/01 02:04:32;;;;;;;9.65;8.30;;;31.10;93.20;;;;;;5094436;28;20602;-51
2021/05/01 02:07:03;;;;;;;10.52;9.48;;;31.10;93.20;;;;;;5095133;28;20242;-48
2021/05/01 02:09:35;;;;;;;9.45;8.55;;;31.10;92.90;;;;;;5094733;28;20201;-50
2021/05/01 02:12:06;;;;;;;10.52;8.50;;;31.10;92.80;;;;;;5093804;28;20258;-49
2021/05/01 02:14:36;;;;;;;9.90;8.90;;;31.20;92.40;;;;;;5094150;28;20696;-52
2021/05/01 02:17:07;;;;;;;9.30;8.32;;;31.20;92.70;;;;;;5094497;28;20197;-51
2021/05/01 02:19:38;;;;;;;9.73;8.68;;;31.20;92.70;;;;;;5094819;28;20193;-48
2021/05/01 02:22:09;;;;;;;10.32;9.18;;;31.20;92.80;;;;;;5093993;28;20266;-49
2021/05/01 02:24:40;;;;;;;9.73;8.85;;;31.20;93.20;;;;;;5094291;28;20254;-49
2021/05/01 02:27:10;;;;;;;9.50;8.50;;;31.30;92.90;;;;;;5094269;28;20197;-47
2021/05/01 02:29:42;;;;;;;9.38;8.25;;;31.30;92.80;;;;;;5093897;28;20267;-49
2021/05/01 02:32:13;;;;;;;9.45;8.55;;;31.30;92.80;;;;;;5093271;28;20640;-49
2021/05/01 02:34:43;;;;;;;9.63;8.63;;;31.40;92.80;;;;;;5090983;28;20197;-49
2021/05/01 02:37:14;;;;;;;11.38;10.18;;;31.40;92.90;;;;;;5092756;28;20231;-49
2021/05/01 02:39:46;;;;;;;10.77;9.65;;;31.40;92.90;;;;;;5092719;28;20208;-50
2021/05/01 02:42:16;;;;;;;11.02;9.00;;;31.50;92.80;;;;;;5092617;28;20300;-53
2021/05/01 02:44:46;;;;;;;10.10;9.05;;;31.50;92.80;;;;;;5092782;28;20204;-50
2021/05/01 02:47:17;;;;;;;11.40;9.95;;;31.60;92.90;;;;;;5083590;28;20246;-51
2021/05/01 02:49:48;;;;;;;13.65;12.25;;;31.70;92.70;;;;;;5093026;28;20246;-51
2021/05/01 02:52:18;;;;;;;12.32;11.13;;;31.70;92.40;;;;;;5092325;28;20839;-52
2021/05/01 02:54:49;;;;;;;13.25;12.07;;;31.80;92.40;;;;;;5092949;28;20197;-50
2021/05/01 02:57:21;;;;;;;14.73;13.23;;;31.80;92.10;;;;;;5092563;28;20644;-51
2021/05/01 02:59:51;;;;;;;14.32;12.98;;;31.90;92.00;;;;;;5092699;28;20728;-49
2021/05/01 03:02:21;;;;;;;14.27;13.02;;;32.00;91.90;;;;;;5092090;28;20236;-51
2021/05/01 03:04:52;;;;;;;14.88;13.48;;;32.00;91.80;;;;;;5092657;28;20608;-51
2021/05/01 03:07:23;;;;;;;13.98;12.70;;;32.10;91.80;;;;;;5092094;28;20211;-50
2021/05/01 03:09:54;;;;;;;12.55;11.35;;;32.10;91.80;;;;;;5092912;28;20201;-48
2021/05/01 03:12:25;;;;;;;14.15;12.85;;;32.20;91.70;;;;;;5091987;28;20193;-48
2021/05/01 03:14:55;;;;;;;14.23;12.93;;;32.20;91.60;;;;;;5092439;28;20228;-52
2021/05/01 03:17:26;;;;;;;14.18;12.93;;;32.30;91.60;;;;;;5092099;28;20204;-50
2021/05/01 03:19:56;;;;;;;14.48;13.27;;;32.40;91.30;;;;;;5092724;28;20205;-50
2021/05/01 03:22:26;;;;;;;14.35;13.15;;;32.40;91.00;;;;;;5091897;28;20767;-51
2021/05/01 03:24:58;;;;;;;14.70;13.55;;;32.50;90.90;;;;;;5092605;28;20215;-49
2021/05/01 03:27:28;;;;;;;13.80;12.70;;;32.50;90.50;;;;;;5092753;28;20193;-51
2021/05/01 03:29:58;;;;;;;13.80;12.52;;;32.60;90.60;;;;;;5092071;28;20670;-50
2021/05/01 03:32:29;;;;;;;13.95;12.75;;;32.60;90.80;;;;;;5092409;28;20579;-48
2021/05/01 03:35:00;;;;;;;13.63;12.43;;;32.60;90.80;;;;;;5091897;28;20250;-51
2021/05/01 03:37:30;;;;;;;15.38;13.98;;;32.80;90.60;;;;;;5091505;28;20233;-52
2021/05/01 03:40:01;;;;;;;14.07;12.88;;;32.80;90.20;;;;;;5092017;28;20201;-50
2021/05/01 03:42:32;;;;;;;12.98;11.85;;;32.90;90.00;;;;;;5091985;28;21492;-47
2021/05/01 03:45:03;;;;;;;12.90;11.70;;;33.00;90.20;;;;;;5093069;28;20209;-52
2021/05/01 03:47:33;;;;;;;14.52;13.20;;;33.00;90.20;;;;;;5092371;28;20209;-50
2021/05/01 03:50:04;;;;;;;13.98;12.80;;;33.10;90.00;;;;;;5092746;28;20201;-49
2021/05/01 03:52:36;;;;;;;13.35;12.15;;;33.20;89.70;;;;;;5090525;28;20200;-48
2021/05/01 03:55:09;;;;;;;14.07;12.95;;;33.20;89.40;;;;;;5092813;28;20257;-50
2021/05/01 03:57:53;;;;;;;14.30;13.10;;;33.30;88.90;;;;;;5092510;28;20310;-53
2021/05/01 04:00:25;;;;;;;14.48;13.27;;;33.40;88.70;;;;;;5092348;28;20280;-50
2021/05/01 04:02:55;;;;;;;14.65;13.35;;;33.40;87.50;;;;;;5090937;28;20240;-50
2021/05/01 04:05:26;;;;;;;14.07;12.88;;;33.50;87.40;;;;;;5092783;28;20273;-47
2021/05/01 04:07:57;;;;;;;14.15;12.93;;;33.60;87.40;;;;;;5092482;28;20287;-53
2021/05/01 04:10:28;;;;;;;13.90;12.63;;;33.60;86.90;;;;;;5092353;28;20211;-49
2021/05/01 04:12:58;;;;;;;15.02;13.65;;;33.60;86.80;;;;;;5091794;28;20625;-51
2021/05/01 04:15:29;;;;;;;13.90;12.60;;;33.70;86.40;;;;;;5092159;28;20262;-51
2021/05/01 04:17:59;;;;;;;16.48;14.98;;;33.70;86.80;;;;;;5092521;28;20204;-49
2021/05/01 04:20:30;;;;;;;14.25;12.85;;;33.80;86.30;;;;;;5091779;28;20205;-48
2021/05/01 04:23:00;;;;;;;13.35;12.15;;;33.80;85.10;;;;;;5091528;28;20292;-50
2021/05/01 04:25:32;;;;;;;12.63;11.52;;;33.80;85.10;;;;;;5091181;28;20811;-51
2021/05/01 04:28:02;;;;;;;13.05;11.88;;;33.90;85.10;;;;;;5091516;28;20193;-49
2021/05/01 04:30:33;;;;;;;13.35;12.10;;;33.90;85.50;;;;;;5091709;28;20197;-50
2021/05/01 04:33:03;;;;;;;12.43;11.45;;;34.00;85.00;;;;;;5090981;28;20201;-48
2021/05/01 04:35:34;;;;;;;12.88;11.68;;;34.10;85.10;;;;;;5090695;28;20221;-49
2021/05/01 04:38:05;;;;;;;12.30;11.25;;;34.10;84.80;;;;;;5090878;28;20205;-49
2021/05/01 04:40:37;;;;;;;11.65;10.75;;;34.20;85.30;;;;;;5090733;28;20204;-48
2021/05/01 04:43:09;;;;;;;12.50;11.50;;;34.30;84.90;;;;;;5090681;28;20570;-47
2021/05/01 04:45:39;;;;;;;11.93;10.93;;;34.40;84.80;;;;;;5090710;28;20200;-48
2021/05/01 04:48:10;;;;;;;12.07;10.93;;;34.40;84.80;;;;;;5090465;28;20201;-49
2021/05/01 04:50:42;;;;;;;12.00;11.00;;;34.50;85.50;;;;;;5090909;28;20203;-49
2021/05/01 04:53:12;;;;;;;11.32;10.43;;;34.60;84.40;;;;;;5090765;28;20594;-50
2021/05/01 04:55:44;;;;;;;12.07;10.98;;;34.70;84.00;;;;;;5091100;28;20224;-48
2021/05/01 04:58:15;;;;;;;11.50;10.50;;;34.80;83.30;;;;;;5089539;28;20200;-52
2021/05/01 05:00:47;;;;;;;10.77;9.88;;;34.90;83.10;;;;;;5091132;28;20276;-48
2021/05/01 05:03:18;;;;;;;11.15;10.15;;;35.00;83.20;;;;;;5090212;28;20262;-48
2021/05/01 05:05:49;;;;;;;10.68;9.77;;;35.00;82.50;;;;;;5090572;28;20407;-49
2021/05/01 05:08:19;;;;;;;10.23;9.30;;;35.10;82.30;;;;;;5092251;28;20205;-50
2021/05/01 05:10:51;;;;;;;11.57;10.35;;;35.10;82.80;;;;;;5088331;28;20204;-51
2021/05/01 05:13:25;;;;;;;9.25;8.55;;;35.10;81.10;;;;;;5094892;28;20283;-49
2021/05/01 05:15:55;;;;;;;10.35;9.55;;;35.20;82.00;;;;;;5094618;28;20223;-50
2021/05/01 05:18:27;;;;;;;9.38;8.65;;;35.20;81.60;;;;;;5094686;28;20661;-48
2021/05/01 05:20:58;;;;;;;9.70;8.90;;;35.20;81.50;;;;;;5094671;28;20230;-50
2021/05/01 05:23:29;;;;;;;10.18;9.38;;;35.20;81.40;;;;;;5031225;28;20212;-48
2021/05/01 05:26:00;;;;;;;9.68;8.88;;;35.30;81.40;;;;;;5031341;28;20207;-50
2021/05/01 05:28:30;;;;;;;11.13;10.13;;;35.30;80.90;;;;;;5029182;28;20286;-52
2021/05/01 05:31:01;;;;;;;10.07;9.18;;;35.30;81.30;;;;;;5031348;28;20662;-50
2021/05/01 05:33:31;;;;;;;10.18;9.38;;;35.30;81.20;;;;;;5030383;28;20281;-50
2021/05/01 05:36:01;;;;;;;11.15;10.27;;;35.40;80.10;;;;;;5030562;28;20334;-46
2021/05/01 05:38:32;;;;;;;9.50;8.80;;;35.40;78.40;;;;;;5030842;28;20207;-49
2021/05/01 05:41:03;;;;;;;8.65;7.95;;;35.40;79.00;;;;;;5031187;28;20655;-47
2021/05/01 05:43:34;;;;;;;9.23;8.32;;;35.40;78.80;;;;;;5030931;28;20210;-51
2021/05/01 05:46:12;;;;;;;8.43;7.82;;;35.50;78.80;;;;;;5030923;28;20199;-47
2021/05/01 05:48:43;;;;;;;7.78;7.18;;;35.50;78.10;;;;;;5030569;28;20218;-48
2021/05/01 05:51:14;;;;;;;7.68;7.07;;;35.50;78.20;;;;;;5030450;28;20283;-48
2021/05/01 05:53:49;;;;;;;8.70;8.00;;;35.50;78.20;;;;;;5043322;28;20204;-49
2021/05/01 05:56:23;;;;;;;8.45;7.65;;;35.50;77.80;;;;;;5093846;28;20208;-49
2021/05/01 05:58:56;;;;;;;9.70;8.80;;;35.50;76.90;;;;;;5092877;28;20720;-47
2021/05/01 06:01:30;;;;;;;9.23;8.43;;;35.50;74.20;;;;;;5093449;28;20258;-50
2021/05/01 06:04:01;;;;;;;9.07;8.27;;;35.40;73.90;;;;;;5093124;28;20241;-50
2021/05/01 06:06:34;;;;;;;10.93;8.88;;;35.30;74.80;;;;;;5093584;28;20197;-49
2021/05/01 06:09:05;;;;;;;9.00;8.30;;;35.30;75.00;;;;;;5093598;28;20201;-48
2021/05/01 06:11:37;;;;;;;8.68;7.95;;;35.30;75.80;;;;;;5092775;28;20201;-50
2021/05/01 06:14:07;;;;;;;9.55;8.65;;;35.20;76.20;;;;;;5029616;28;20215;-48
2021/05/01 06:16:38;;;;;;;8.60;7.95;;;35.30;76.10;;;;;;5030303;28;20224;-51
2021/05/01 06:19:10;;;;;;;9.90;8.85;;;35.20;76.90;;;;;;5029799;28;20222;-50
2021/05/01 06:21:41;;;;;;;9.73;8.93;;;35.20;77.10;;;;;;4971229;28;20283;-50
2021/05/01 06:24:11;;;;;;;9.45;8.65;;;35.30;77.50;;;;;;4971337;28;20235;-50
2021/05/01 06:26:43;;;;;;;9.00;8.30;;;35.30;78.00;;;;;;4971410;28;20208;-48
2021/05/01 06:29:13;;;;;;;9.30;8.48;;;35.30;78.00;;;;;;4970853;28;20200;-52
2021/05/01 06:31:44;;;;;;;10.43;9.52;;;35.30;78.30;;;;;;4970968;28;20925;-47
2021/05/01 06:34:15;;;;;;;10.13;9.30;;;35.30;77.60;;;;;;4970317;28;20204;-48
2021/05/01 06:36:45;;;;;;;9.93;9.07;;;35.30;77.20;;;;;;4969727;28;20233;-50
2021/05/01 06:39:15;;;;;;;10.48;9.65;;;35.30;77.00;;;;;;4969913;28;20205;-52
2021/05/01 06:41:53;;;;;;;10.93;10.00;;;35.30;77.40;;;;;;4970541;28;20205;-51
2021/05/01 06:44:39;;;;;;;8.85;8.20;;;35.30;77.80;;;;;;4973572;28;20241;-49
2021/05/01 06:47:11;;;;;;;8.70;7.90;;;35.30;77.70;;;;;;5022374;28;20273;-47
2021/05/01 06:49:49;;;;;;;9.35;8.55;;;35.40;77.90;;;;;;5011751;28;20631;-48
2021/05/01 06:52:21;;;;;;;9.27;8.48;;;35.40;77.70;;;;;;5042252;28;20201;-46
2021/05/01 06:54:52;;;;;;;8.80;8.10;;;35.40;78.00;;;;;;5079855;28;20205;-50
2021/05/01 06:57:27;;;;;;;9.35;8.55;;;35.40;78.10;;;;;;5087240;28;20232;-48
2021/05/01 06:59:59;;;;;;;9.10;8.35;;;35.40;77.90;;;;;;5081406;28;20922;-48
2021/05/01 07:02:30;;;;;;;9.43;8.57;;;35.40;77.90;;;;;;5079190;28;20239;-47
2021/05/01 07:05:00;;;;;;;9.30;8.50;;;35.40;78.10;;;;;;5086428;28;20196;-47
2021/05/01 07:07:31;;;;;;;8.70;7.95;;;35.50;78.20;;;;;;5081720;28;20258;-48
2021/05/01 07:10:02;;;;;;;9.52;8.73;;;35.50;77.60;;;;;;5083695;28;20204;-47
2021/05/01 07:12:33;;;;;;;10.10;9.15;;;35.40;77.50;;;;;;5048284;28;20227;-48
2021/05/01 07:15:04;;;;;;;10.35;9.55;;;35.50;77.20;;;;;;5048340;28;20614;-52
2021/05/01 07:17:35;;;;;;;9.05;8.30;;;35.50;76.90;;;;;;5047239;28;20214;-50
2021/05/01 07:20:07;;;;;;;10.05;9.15;;;35.50;77.00;;;;;;5051493;28;20285;-48
2021/05/01 07:22:39;;;;;;;9.00;8.20;;;35.50;77.10;;;;;;5052647;28;20207;-48
2021/05/01 07:25:10;;;;;;;8.18;7.57;;;35.50;77.30;;;;;;5052110;28;20666;-51
2021/05/01 07:27:53;;;;;;;10.18;9.25;;;35.50;77.30;;;;;;5052435;28;20217;-51
2021/05/01 07:30:24;;;;;;;8.65;7.90;;;35.60;76.50;;;;;;5048726;28;20195;-52
2021/05/01 07:32:56;;;;;;;9.20;8.43;;;35.60;76.90;;;;;;5047266;28;20202;-52
2021/05/01 07:35:27;;;;;;;9.70;8.90;;;35.60;77.00;;;;;;5048471;28;20252;-52
2021/05/01 07:37:57;;;;;;;8.95;8.23;;;35.60;76.40;;;;;;5085179;28;20555;-50
2021/05/01 07:40:29;;;;;;;9.32;8.60;;;35.60;76.60;;;;;;5091321;28;20718;-49
2021/05/01 07:43:01;;;;;;;8.75;8.05;;;35.60;76.60;;;;;;5089511;28;20207;-49
2021/05/01 07:45:31;;;;;;;8.98;8.18;;;35.60;76.20;;;;;;5092280;28;20196;-48
2021/05/01 07:48:02;;;;;;;8.20;7.60;;;35.60;76.20;;;;;;5092928;28;20280;-51
2021/05/01 07:50:32;;;;;;;8.77;8.07;;;35.60;76.60;;;;;;5092322;28;20200;-49
2021/05/01 07:53:03;;;;;;;8.20;7.50;;;35.60;76.40;;;;;;5090366;28;20533;-48
2021/05/01 07:55:33;;;;;;;8.07;7.43;;;35.60;76.50;;;;;;5049394;28;20210;-51
2021/05/01 07:58:05;;;;;;;9.55;8.65;;;35.60;76.40;;;;;;5049418;28;20244;-53
2021/05/01 08:00:35;;;;;;;8.77;8.07;;;35.60;76.40;;;;;;5047217;28;20322;-52
2021/05/01 08:03:07;;;;;;;8.20;7.50;;;35.60;76.30;;;;;;5048232;28;20276;-51
2021/05/01 08:05:37;;;;;;;8.38;7.68;;;35.60;76.20;;;;;;5046836;28;20311;-52
2021/05/01 08:08:08;;;;;;;8.15;7.45;;;35.50;76.30;;;;;;5040784;28;20194;-51
2021/05/01 08:10:39;;;;;;;7.45;6.85;;;35.50;76.40;;;;;;5032855;28;20265;-50
2021/05/01 08:13:10;;;;;;;8.43;7.72;;;35.50;76.40;;;;;;5034093;28;20198;-52
2021/05/01 08:15:40;;;;;;;8.27;7.55;;;35.50;76.40;;;;;;5044229;28;20203;-51
2021/05/01 08:18:11;;;;;;;7.63;7.05;;;35.50;76.50;;;;;;5034249;28;20231;-52
2021/05/01 08:20:41;;;;;;;8.10;7.40;;;35.50;76.50;;;;;;5045553;28;20411;-52
2021/05/01 08:23:12;;;;;;;7.22;6.63;;;35.50;76.70;;;;;;5035770;28;20320;-49
2021/05/01 08:25:43;;;;;;;8.57;7.72;;;35.50;76.60;;;;;;5050320;28;20877;-48
2021/05/01 08:28:14;;;;;;;7.25;6.75;;;35.40;76.30;;;;;;5071709;28;20216;-49
2021/05/01 08:30:45;;;;;;;8.55;7.85;;;35.40;76.30;;;;;;5071697;28;20224;-50
2021/05/01 08:33:15;;;;;;;8.35;7.63;;;35.50;76.00;;;;;;5071897;28;20195;-50
2021/05/01 08:35:46;;;;;;;7.72;7.13;;;35.40;76.40;;;;;;5070543;28;20590;-51
2021/05/01 08:38:16;;;;;;;7.88;7.18;;;35.50;76.70;;;;;;5071617;28;20228;-52
2021/05/01 08:40:47;;;;;;;8.23;7.43;;;35.50;76.40;;;;;;5071557;28;20402;-53
2021/05/01 08:43:19;;;;;;;8.30;7.60;;;35.50;76.10;;;;;;5078095;28;20280;-49
2021/05/01 08:45:51;;;;;;;7.88;7.28;;;35.60;75.60;;;;;;5078203;28;20190;-49
2021/05/01 08:48:24;;;;;;;7.28;6.65;;;35.60;75.60;;;;;;5076679;28;20224;-52
2021/05/01 08:50:57;;;;;;;7.55;7.00;;;35.60;75.60;;;;;;5078250;28;20190;-53
2021/05/01 08:53:27;;;;;;;7.68;7.07;;;35.60;75.40;;;;;;5078586;28;20223;-49
2021/05/01 08:55:58;;;;;;;8.05;7.25;;;35.70;76.60;;;;;;5076584;28;20288;-52
2021/05/01 08:58:29;;;;;;;7.60;6.93;;;35.70;75.60;;;;;;5078495;28;20205;-51
2021/05/01 09:01:00;;;;;;;9.20;8.40;;;35.80;75.20;;;;;;5078209;28;20224;-51
2021/05/01 09:03:31;;;;;;;7.72;7.03;;;35.80;72.80;;;;;;5093363;28;20232;-49
2021/05/01 09:06:02;;;;;;;7.57;6.88;;;35.80;73.00;;;;;;5098769;28;20283;-52
2021/05/01 09:08:33;;;;;;;8.00;7.40;;;35.80;73.10;;;;;;5098742;28;20256;-51
2021/05/01 09:11:04;;;;;;;7.30;6.65;;;35.70;72.50;;;;;;5099252;28;20300;-54
2021/05/01 09:13:45;;;;;;;7.00;6.40;;;35.70;72.30;;;;;;5098719;28;20203;-48
2021/05/01 09:16:16;;;;;;;8.63;7.93;;;35.70;72.10;;;;;;5035191;28;20304;-47
2021/05/01 09:18:48;;;;;;;9.30;8.43;;;35.70;72.40;;;;;;5034168;28;20211;-51
2021/05/01 09:21:20;;;;;;;9.27;8.43;;;35.70;72.60;;;;;;5035521;28;20195;-51
2021/05/01 09:23:50;;;;;;;8.20;7.50;;;35.60;72.70;;;;;;5035119;28;20211;-50
2021/05/01 09:26:34;;;;;;;7.60;6.53;;;35.60;73.00;;;;;;5035631;28;20621;-50
2021/05/01 09:29:05;;;;;;;7.65;6.95;;;35.60;73.70;;;;;;5035396;28;20202;-49
2021/05/01 09:31:42;;;;;;;8.02;7.32;;;35.60;73.70;;;;;;5035823;28;20211;-47
2021/05/01 09:34:12;;;;;;;7.93;7.22;;;35.70;74.30;;;;;;5035537;28;20225;-48
2021/05/01 09:36:46;;;;;;;7.75;7.05;;;35.70;74.60;;;;;;5036469;28;20222;-48
2021/05/01 09:39:17;;;;;;;7.32;6.72;;;35.70;73.80;;;;;;4996322;28;20208;-49
2021/05/01 09:41:47;;;;;;;7.30;6.70;;;35.70;73.80;;;;;;4989828;28;20645;-51
2021/05/01 09:44:19;;;;;;;7.55;6.68;;;35.80;74.20;;;;;;4996362;28;20211;-48
2021/05/01 09:46:51;;;;;;;7.53;6.82;;;35.80;74.40;;;;;;4995310;28;20706;-49
2021/05/01 09:49:22;;;;;;;7.28;6.60;;;35.80;74.30;;;;;;4995225;28;20207;-49
2021/05/01 09:51:54;;;;;;;7.03;6.43;;;35.90;74.20;;;;;;4995596;28;20212;-47
2021/05/01 09:54:27;;;;;;;7.65;6.95;;;35.90;74.30;;;;;;4993057;28;20907;-48
2021/05/01 09:56:58;;;;;;;7.40;6.70;;;35.90;74.20;;;;;;4992745;28;20295;-49
2021/05/01 09:59:40;;;;;;;9.15;7.75;;;36.00;73.70;;;;;;4991978;28;20216;-51
2021/05/01 10:02:11;;;;;;;9.07;8.18;;;36.00;73.40;;;;;;4992080;28;20263;-47
2021/05/01 10:04:42;;;;;;;9.35;8.55;;;36.10;73.50;;;;;;4992071;28;20201;-51
2021/05/01 10:07:13;;;;;;;9.27;8.43;;;36.10;73.10;;;;;;4992164;28;20219;-49
2021/05/01 10:09:45;;;;;;;9.13;8.23;;;36.10;72.90;;;;;;5001192;28;20784;-48
2021/05/01 10:12:16;;;;;;;8.02;7.28;;;36.10;73.10;;;;;;5048351;28;20705;-48
2021/05/01 10:14:48;;;;;;;8.02;7.30;;;36.10;72.60;;;;;;5094668;28;20185;-51
2021/05/01 10:17:25;;;;;;;7.72;7.03;;;36.10;72.40;;;;;;5094233;28;20246;-49
2021/05/01 10:19:56;;;;;;;7.00;6.45;;;36.10;72.60;;;;;;5093292;28;20271;-51
2021/05/01 10:22:37;;;;;;;6.93;6.30;;;36.00;72.50;;;;;;5091789;28;20189;-51
2021/05/01 10:25:08;;;;;;;7.03;6.43;;;36.00;72.30;;;;;;5094279;28;20311;-53
2021/05/01 10:27:45;;;;;;;6.63;5.82;;;36.00;72.10;;;;;;5094318;28;20249;-50
2021/05/01 10:30:27;;;;;;;6.57;5.97;;;36.00;71.90;;;;;;5093561;28;20720;-49
2021/05/01 10:33:09;;;;;;;6.47;5.90;;;36.00;71.60;;;;;;5092415;28;20195;-47
2021/05/01 10:35:39;;;;;;;6.00;5.55;;;35.90;71.70;;;;;;5093335;28;20224;-52
2021/05/01 10:38:12;;;;;;;6.28;5.78;;;35.90;71.60;;;;;;5093510;28;20828;-49
2021/05/01 10:40:47;;;;;;;6.25;5.75;;;35.90;71.20;;;;;;5093955;28;20201;-52
2021/05/01 10:43:19;;;;;;;5.90;5.50;;;36.00;71.00;;;;;;5093811;28;20278;-51
2021/05/01 10:46:05;;;;;;;6.13;5.63;;;36.00;71.50;;;;;;5093643;28;20192;-51
2021/05/01 10:48:36;;;;;;;6.35;5.82;;;36.10;71.20;;;;;;5091484;28;20266;-50
2021/05/01 10:51:08;;;;;;;6.35;5.85;;;36.20;71.50;;;;;;5093447;28;20200;-52
2021/05/01 10:53:39;;;;;;;5.93;5.53;;;36.30;71.20;;;;;;5092385;28;20197;-53
2021/05/01 10:56:10;;;;;;;6.70;6.10;;;36.40;71.10;;;;;;5092471;28;20197;-47
2021/05/01 10:58:42;;;;;;;6.75;6.20;;;36.50;71.10;;;;;;5092318;28;20648;-48
2021/05/01 11:01:20;;;;;;;5.70;5.30;;;36.60;71.00;;;;;;5093021;28;20205;-50
2021/05/01 11:03:50;;;;;;;5.68;5.28;;;36.70;70.80;;;;;;5091571;28;20236;-49
2021/05/01 11:06:25;;;;;;;5.40;5.00;;;36.80;70.20;;;;;;5091353;28;20247;-51
2021/05/01 11:09:06;;;;;;;5.78;5.35;;;36.90;69.60;;;;;;5092058;28;20247;-47
2021/05/01 11:11:38;;;;;;;5.63;5.13;;;36.90;69.10;;;;;;5080370;28;20655;-49
2021/05/01 11:14:18;;;;;;;6.75;4.97;;;36.80;68.90;;;;;;5092148;28;20235;-47
2021/05/01 11:16:52;;;;;;;5.78;5.35;;;36.80;69.00;;;;;;5049203;28;20221;-49
2021/05/01 11:19:24;;;;;;;5.53;5.03;;;36.60;69.00;;;;;;5047978;28;20205;-49
2021/05/01 11:21:54;;;;;;;5.68;5.20;;;36.60;69.30;;;;;;5049374;28;20887;-53
2021/05/01 11:24:25;;;;;;;6.00;5.50;;;36.40;69.30;;;;;;5048770;28;20251;-49
2021/05/01 11:26:55;;;;;;;5.43;5.03;;;36.30;69.60;;;;;;5048765;28;20854;-50
2021/05/01 11:29:25;;;;;;;6.78;6.13;;;36.10;69.70;;;;;;5048497;28;20212;-49
2021/05/01 11:31:57;;;;;;;6.32;5.82;;;36.00;70.00;;;;;;5048753;28;20211;-52
2021/05/01 11:34:30;;;;;;;9.02;6.10;;;35.90;70.30;;;;;;5048696;28;20209;-48
2021/05/01 11:37:01;;;;;;;5.90;5.45;;;35.80;70.50;;;;;;5048559;28;20234;-47
2021/05/01 11:39:33;;;;;;;6.22;5.65;;;35.60;70.80;;;;;;5048505;28;20240;-47
2021/05/01 11:42:03;;;;;;;5.85;5.35;;;35.50;71.10;;;;;;5083355;28;20330;-48
2021/05/01 11:44:34;;;;;;;5.53;5.13;;;35.40;71.60;;;;;;5091099;28;20197;-48
2021/05/01 11:47:11;;;;;;;6.18;5.70;;;35.20;71.90;;;;;;5091291;28;20191;-50
2021/05/01 11:49:42;;;;;;;6.43;5.85;;;35.20;72.50;;;;;;5091199;28;20558;-48
2021/05/01 11:52:28;;;;;;;5.60;5.10;;;35.00;72.70;;;;;;5090609;28;20228;-48
2021/05/01 11:55:20;;;;;;;6.18;5.68;;;34.90;72.90;;;;;;5092248;28;20201;-53
2021/05/01 11:57:51;;;;;;;5.38;4.97;;;34.80;72.80;;;;;;5093796;28;20564;-49
2021/05/01 12:00:31;;;;;;;6.35;5.78;;;34.70;72.70;;;;;;5090881;28;20201;-50
2021/05/01 12:03:04;;;;;;;6.22;5.63;;;34.60;73.40;;;;;;5093254;28;20319;-53
2021/05/01 12:05:37;;;;;;;5.78;5.28;;;34.50;73.30;;;;;;5093286;28;20728;-54
2021/05/01 12:08:11;;;;;;;7.13;6.43;;;34.50;73.90;;;;;;5092967;28;20224;-53
2021/05/01 12:10:44;;;;;;;6.38;5.88;;;34.40;74.50;;;;;;5092518;28;20203;-51
2021/05/01 12:13:17;;;;;;;6.15;5.65;;;34.30;74.60;;;;;;5093046;28;20250;-51
2021/05/01 12:15:48;;;;;;;5.88;5.38;;;34.20;75.00;;;;;;5092928;28;20210;-55
2021/05/01 12:18:20;;;;;;;6.65;6.05;;;34.10;75.20;;;;;;5091676;28;20219;-53
2021/05/01 12:20:54;;;;;;;6.65;6.10;;;34.10;75.20;;;;;;5028570;28;20237;-52
2021/05/01 12:23:40;;;;;;;6.15;5.55;;;34.00;75.30;;;;;;5028731;28;20206;-54
2021/05/01 12:26:18;;;;;;;6.43;5.82;;;34.00;75.70;;;;;;5028763;28;20230;-53
2021/05/01 12:28:48;;;;;;;6.30;5.68;;;33.90;75.40;;;;;;4969990;28;20223;-50
2021/05/01 12:31:18;;;;;;;5.95;5.45;;;33.90;75.70;;;;;;4969454;28;20220;-52
2021/05/01 12:33:56;;;;;;;7.13;6.43;;;33.80;75.70;;;;;;4893250;29;20215;-53
2021/05/01 12:36:27;;;;;;;6.07;5.57;;;33.70;76.10;;;;;;4893820;29;20263;-52
2021/05/01 12:38:59;;;;;;;5.90;5.40;;;33.70;76.20;;;;;;4894090;29;20223;-53
2021/05/01 12:41:40;;;;;;;7.40;5.88;;;33.60;76.20;;;;;;4893780;29;20298;-54
2021/05/01 12:44:11;;;;;;;6.50;6.00;;;33.50;76.50;;;;;;4894048;29;20242;-56
2021/05/01 12:46:46;;;;;;;7.63;5.57;;;33.50;76.90;;;;;;4892946;29;20203;-50
2021/05/01 12:49:24;;;;;;;5.95;5.45;;;33.40;77.10;;;;;;4893374;29;20215;-53
2021/05/01 12:52:08;;;;;;;6.03;5.53;;;33.30;77.40;;;;;;4922417;29;20217;-54
2021/05/01 12:54:42;;;;;;;6.47;5.88;;;33.30;77.40;;;;;;4950065;29;20222;-54
2021/05/01 12:57:14;;;;;;;6.45;5.85;;;33.20;77.60;;;;;;4950852;28;20264;-55
2021/05/01 12:59:44;;;;;;;6.38;5.78;;;33.20;77.90;;;;;;5010419;28;20210;-52
2021/05/01 13:02:28;;;;;;;5.88;5.38;;;33.10;78.10;;;;;;5047440;28;20999;-51